Time;durP1;ratioP1;P1;durP2;ratioP2;P2;SDS_P1;SDS_P2;PMS_P1;PMS_P2;Temp;Humidity;BMP_temperature;BMP_pressure;BME280_temperature;BME280_humidity;BME280_pressure;Samples;Min_cycle;Max_cycle;Signal;HPM_P1;HPM_P2
2021/12/18 00:00:59;;;;;;;6.50;3.90;;;9.40;99.90;;;;;;5073446;28;20082;-61
2021/12/18 00:03:25;;;;;;;6.68;3.67;;;9.40;99.90;;;;;;5076082;28;20035;-61
2021/12/18 00:05:51;;;;;;;5.25;3.30;;;9.40;99.90;;;;;;5080105;28;20016;-61
2021/12/18 00:08:16;;;;;;;5.50;3.47;;;9.40;99.90;;;;;;5076865;28;20522;-60
2021/12/18 00:10:44;;;;;;;6.55;3.50;;;9.40;99.90;;;;;;5073999;28;20076;-61
2021/12/18 00:13:10;;;;;;;5.90;3.75;;;9.40;99.90;;;;;;5059981;28;20051;-60
2021/12/18 00:15:35;;;;;;;5.22;3.25;;;9.40;99.90;;;;;;5074323;28;20032;-60
2021/12/18 00:18:01;;;;;;;6.38;3.80;;;9.40;99.90;;;;;;5073674;28;20092;-60
2021/12/18 00:20:27;;;;;;;5.70;3.72;;;9.40;99.90;;;;;;5075650;28;20484;-60
2021/12/18 00:22:53;;;;;;;5.63;3.63;;;9.40;99.90;;;;;;5076595;28;20098;-61
2021/12/18 00:25:19;;;;;;;7.38;4.00;;;9.40;99.90;;;;;;5073369;28;20503;-60
2021/12/18 00:27:45;;;;;;;5.95;3.22;;;9.40;99.90;;;;;;5070894;28;20119;-60
2021/12/18 00:30:10;;;;;;;6.97;3.65;;;9.40;99.90;;;;;;5076151;28;20024;-60
2021/12/18 00:32:36;;;;;;;7.60;3.97;;;9.40;99.90;;;;;;5073351;28;20059;-60
2021/12/18 00:35:02;;;;;;;5.47;3.75;;;9.40;99.90;;;;;;5072770;28;20510;-61
2021/12/18 00:37:28;;;;;;;5.60;3.60;;;9.40;99.90;;;;;;5059486;28;20042;-60
2021/12/18 00:39:58;;;;;;;6.40;3.85;;;9.40;99.90;;;;;;5074602;28;20021;-61
2021/12/18 00:45:11;;;;;;;7.05;3.88;;;9.40;99.90;;;;;;5068458;28;20013;-61
2021/12/18 00:47:37;;;;;;;4.88;2.80;;;9.40;99.90;;;;;;5070501;28;20019;-60
2021/12/18 00:50:06;;;;;;;5.43;3.20;;;9.40;99.90;;;;;;5061075;28;20058;-60
2021/12/18 00:52:32;;;;;;;6.88;3.53;;;9.40;99.90;;;;;;5070469;28;20365;-61
2021/12/18 00:54:58;;;;;;;5.78;3.45;;;9.50;99.90;;;;;;5072974;28;20043;-60
2021/12/18 00:57:23;;;;;;;6.47;3.28;;;9.40;99.90;;;;;;5073068;28;20021;-60
2021/12/18 00:59:52;;;;;;;5.63;3.45;;;9.50;99.90;;;;;;5067644;28;20020;-60
2021/12/18 01:02:17;;;;;;;6.88;3.55;;;9.40;99.90;;;;;;5049255;28;20622;-60
2021/12/18 01:04:43;;;;;;;5.97;3.30;;;9.40;99.90;;;;;;5070366;28;20025;-61
2021/12/18 01:07:09;;;;;;;6.10;3.47;;;9.40;99.90;;;;;;5073196;28;20021;-61
2021/12/18 01:12:39;;;;;;;8.15;3.55;;;9.50;99.90;;;;;;5059230;28;20616;-61
2021/12/18 01:15:18;;;;;;;7.32;4.05;;;9.40;99.90;;;;;;5074345;28;20050;-61
2021/12/18 01:23:13;;;;;;;6.70;3.65;;;9.40;99.90;;;;;;5073596;28;20027;-61
2021/12/18 01:25:38;;;;;;;6.28;3.65;;;9.40;99.90;;;;;;5070155;28;20024;-61
2021/12/18 01:28:04;;;;;;;6.18;3.88;;;9.40;99.90;;;;;;5070342;28;20031;-61
2021/12/18 01:30:30;;;;;;;7.13;4.15;;;9.40;99.90;;;;;;5077196;28;20562;-61
2021/12/18 01:32:55;;;;;;;8.65;4.75;;;9.40;99.90;;;;;;5074075;28;20021;-60
2021/12/18 01:35:22;;;;;;;5.50;3.67;;;9.40;99.90;;;;;;5078476;28;20027;-60
2021/12/18 01:37:49;;;;;;;7.45;4.10;;;9.40;99.90;;;;;;5083968;28;20024;-60
2021/12/18 01:40:15;;;;;;;7.57;4.30;;;9.40;99.90;;;;;;5078498;28;20115;-61
2021/12/18 01:53:22;;;;;;;6.60;3.85;;;9.40;99.90;;;;;;5079134;28;20035;-61
2021/12/18 01:55:50;;;;;;;6.25;3.83;;;9.30;99.90;;;;;;5070838;28;20036;-61
2021/12/18 01:58:21;;;;;;;7.32;4.35;;;9.40;99.90;;;;;;5070698;28;20499;-61
2021/12/18 02:00:47;;;;;;;7.30;4.53;;;9.40;99.90;;;;;;5073559;28;20027;-60
2021/12/18 02:03:12;;;;;;;7.25;3.92;;;9.40;99.90;;;;;;5081029;28;20020;-61
2021/12/18 02:05:38;;;;;;;8.65;5.10;;;9.40;99.90;;;;;;5091450;28;20024;-61
2021/12/18 02:08:05;;;;;;;7.38;4.57;;;9.40;99.90;;;;;;5081372;28;20021;-61
2021/12/18 02:10:42;;;;;;;8.90;4.70;;;9.40;99.90;;;;;;5074093;28;20013;-60
2021/12/18 02:13:25;;;;;;;6.63;4.50;;;9.40;99.90;;;;;;5071689;28;20032;-60
2021/12/18 02:21:23;;;;;;;5.68;3.97;;;9.30;99.90;;;;;;5073043;28;20549;-61
2021/12/18 02:23:50;;;;;;;5.73;3.50;;;9.30;99.90;;;;;;5079874;28;20103;-60
2021/12/18 02:26:16;;;;;;;4.80;3.50;;;9.30;99.90;;;;;;5078533;28;20020;-60
2021/12/18 02:28:46;;;;;;;5.20;3.50;;;9.30;99.90;;;;;;5075878;28;20021;-61
2021/12/18 02:31:12;;;;;;;4.95;3.30;;;9.30;99.90;;;;;;5071614;28;20021;-60
2021/12/18 02:33:38;;;;;;;6.13;3.97;;;9.30;99.90;;;;;;5080868;28;20115;-60
2021/12/18 02:36:07;;;;;;;6.38;4.20;;;9.30;99.90;;;;;;5072755;28;20094;-61
2021/12/18 02:44:01;;;;;;;8.40;4.75;;;9.20;99.90;;;;;;5081185;28;20479;-60
2021/12/18 02:46:27;;;;;;;6.07;4.10;;;9.20;99.90;;;;;;5073640;28;20025;-61
2021/12/18 02:48:54;;;;;;;5.40;3.25;;;9.20;99.90;;;;;;5071202;28;20562;-60
2021/12/18 02:51:20;;;;;;;4.93;3.22;;;9.20;99.90;;;;;;5077514;28;20032;-60
2021/12/18 02:53:55;;;;;;;5.05;3.15;;;9.20;99.90;;;;;;5072359;28;20029;-61
2021/12/18 02:56:23;;;;;;;4.45;3.10;;;9.30;99.90;;;;;;5071980;28;20016;-60
2021/12/18 02:58:51;;;;;;;6.60;3.22;;;9.20;99.90;;;;;;5080166;28;20856;-61
2021/12/18 03:01:20;;;;;;;4.78;3.42;;;9.20;99.90;;;;;;5077479;28;20059;-60
2021/12/18 03:03:47;;;;;;;;;;;9.30;99.90;;;;;;5056957;28;20020;-60
2021/12/18 03:06:31;;;;;;;3.70;2.63;;;9.20;99.90;;;;;;5079812;28;19915;-61
2021/12/18 03:25:25;;;;;;;5.32;3.13;;;9.20;99.90;;;;;;5077095;28;20101;-61
2021/12/18 03:27:52;;;;;;;5.07;3.58;;;9.20;99.90;;;;;;5068918;28;20017;-60
2021/12/18 03:30:19;;;;;;;6.35;3.90;;;9.10;99.90;;;;;;5077230;28;20033;-60
2021/12/18 03:32:45;;;;;;;5.90;3.95;;;9.20;99.90;;;;;;5071632;28;20124;-60
2021/12/18 03:35:13;;;;;;;5.10;3.55;;;9.10;99.90;;;;;;5071344;28;20025;-61
2021/12/18 03:37:39;;;;;;;4.78;3.47;;;9.10;99.90;;;;;;5074117;28;20051;-60
2021/12/18 03:40:08;;;;;;;5.90;3.45;;;9.20;99.90;;;;;;5068673;28;20048;-61
2021/12/18 03:42:34;;;;;;;5.40;3.28;;;9.20;99.90;;;;;;5076163;28;20024;-60
2021/12/18 03:45:00;;;;;;;4.63;3.25;;;9.20;99.90;;;;;;5056490;28;20051;-60
2021/12/18 03:47:26;;;;;;;6.05;3.95;;;9.20;99.90;;;;;;5073712;28;20026;-61
2021/12/18 03:49:51;;;;;;;5.95;4.18;;;9.20;99.90;;;;;;5071076;28;20029;-60
2021/12/18 03:52:17;;;;;;;6.82;4.30;;;9.20;99.90;;;;;;5058432;28;20032;-60
2021/12/18 03:54:43;;;;;;;5.78;3.88;;;9.20;99.90;;;;;;5058891;28;20389;-61
2021/12/18 03:57:09;;;;;;;6.43;4.18;;;9.20;99.90;;;;;;5075983;28;20039;-60
2021/12/18 03:59:34;;;;;;;6.63;4.13;;;9.10;99.90;;;;;;5081459;28;20016;-60
2021/12/18 04:02:00;;;;;;;5.78;4.03;;;9.10;99.90;;;;;;5071400;28;20028;-60
2021/12/18 04:04:26;;;;;;;5.78;3.85;;;9.10;99.90;;;;;;5071780;28;20027;-61
2021/12/18 04:06:51;;;;;;;6.22;3.55;;;9.10;99.90;;;;;;5070081;28;20909;-61
2021/12/18 04:09:17;;;;;;;5.85;4.05;;;9.10;99.90;;;;;;5067685;28;20058;-60
2021/12/18 04:11:43;;;;;;;6.47;4.30;;;9.10;99.90;;;;;;5073900;28;20482;-60
2021/12/18 04:14:28;;;;;;;5.90;3.72;;;9.10;99.90;;;;;;5055466;28;20028;-60
2021/12/18 04:16:53;;;;;;;6.78;4.47;;;9.20;99.90;;;;;;5070860;28;20032;-61
2021/12/18 04:19:19;;;;;;;5.57;3.75;;;9.10;99.90;;;;;;5078810;28;20048;-61
2021/12/18 04:21:45;;;;;;;7.03;3.80;;;9.10;99.90;;;;;;5073738;28;20012;-61
2021/12/18 04:24:11;;;;;;;6.13;3.47;;;9.10;99.90;;;;;;5067955;28;20031;-60
2021/12/18 04:26:37;;;;;;;6.88;4.00;;;9.10;99.90;;;;;;5076965;28;20016;-61
2021/12/18 04:29:03;;;;;;;5.60;3.42;;;9.10;99.90;;;;;;5068144;28;20349;-60
2021/12/18 04:31:29;;;;;;;5.70;3.53;;;9.10;99.90;;;;;;5074754;28;20024;-60
2021/12/18 04:33:55;;;;;;;6.68;4.10;;;9.10;99.90;;;;;;5074841;28;20031;-60
2021/12/18 04:36:21;;;;;;;5.15;3.55;;;9.10;99.90;;;;;;5073189;28;20032;-60
2021/12/18 04:38:48;;;;;;;6.28;3.67;;;9.20;99.90;;;;;;5075806;28;20024;-60
2021/12/18 04:41:21;;;;;;;6.13;3.63;;;9.20;99.90;;;;;;5070551;28;20083;-61
2021/12/18 04:43:46;;;;;;;6.28;3.08;;;9.10;99.90;;;;;;5067938;28;20021;-61
2021/12/18 04:46:12;;;;;;;6.72;3.50;;;9.10;99.90;;;;;;5077315;28;20020;-61
2021/12/18 04:48:37;;;;;;;5.72;3.75;;;9.10;99.90;;;;;;5073075;28;20107;-61
2021/12/18 04:51:03;;;;;;;6.80;3.85;;;9.10;99.90;;;;;;5073317;28;20024;-61
2021/12/18 04:53:29;;;;;;;7.55;4.32;;;9.10;99.90;;;;;;5068831;28;20168;-61
2021/12/18 04:55:54;;;;;;;8.05;4.60;;;9.10;99.90;;;;;;5072486;28;20039;-61
2021/12/18 04:58:20;;;;;;;9.88;5.40;;;9.10;99.90;;;;;;5070650;28;20150;-60
2021/12/18 05:00:47;;;;;;;8.00;4.97;;;9.10;99.90;;;;;;5070371;28;20028;-60
2021/12/18 05:03:16;;;;;;;7.10;4.35;;;9.00;99.90;;;;;;5062284;28;20023;-60
2021/12/18 05:05:41;;;;;;;9.00;4.93;;;9.10;99.90;;;;;;5067592;28;20024;-60
2021/12/18 05:08:07;;;;;;;8.27;4.53;;;9.00;99.90;;;;;;5075701;28;20350;-60
2021/12/18 05:10:33;;;;;;;6.82;4.07;;;9.00;99.90;;;;;;5070423;28;20415;-60
2021/12/18 05:12:59;;;;;;;8.27;5.22;;;9.00;99.90;;;;;;5076361;28;20379;-60
2021/12/18 05:15:25;;;;;;;8.77;4.95;;;9.00;99.90;;;;;;5075467;28;20027;-61
2021/12/18 05:17:50;;;;;;;8.25;4.75;;;9.00;99.90;;;;;;5067350;28;20480;-60
2021/12/18 05:20:16;;;;;;;7.55;4.05;;;9.00;99.90;;;;;;5072965;28;20400;-60
2021/12/18 05:22:42;;;;;;;8.40;4.57;;;9.00;99.90;;;;;;5076866;28;20028;-61
2021/12/18 05:25:08;;;;;;;6.13;3.63;;;9.00;99.90;;;;;;5077887;28;20050;-60
2021/12/18 05:27:36;;;;;;;6.78;3.88;;;9.00;99.90;;;;;;5075567;28;20024;-61
2021/12/18 05:30:03;;;;;;;6.13;3.53;;;8.90;99.90;;;;;;5076535;28;20031;-61
2021/12/18 05:32:28;;;;;;;5.68;2.85;;;8.90;99.90;;;;;;5063369;28;20586;-60
2021/12/18 05:34:54;;;;;;;4.32;2.83;;;8.90;99.90;;;;;;5059987;28;20028;-61
2021/12/18 05:37:31;;;;;;;4.72;2.97;;;8.90;99.90;;;;;;5058339;28;20115;-61
2021/12/18 05:39:58;;;;;;;4.65;2.83;;;9.00;99.90;;;;;;5079734;28;20020;-61
2021/12/18 05:42:24;;;;;;;4.85;2.13;;;9.00;99.90;;;;;;5077030;28;20085;-60
2021/12/18 05:44:50;;;;;;;4.50;2.65;;;9.00;99.90;;;;;;5074368;28;20485;-60
2021/12/18 05:47:16;;;;;;;5.40;2.90;;;9.00;99.90;;;;;;5074889;28;20043;-60
2021/12/18 05:49:41;;;;;;;5.28;2.60;;;9.00;99.90;;;;;;5076439;28;20103;-61
2021/12/18 05:52:07;;;;;;;3.55;1.95;;;9.00;99.90;;;;;;5060812;28;20393;-60
2021/12/18 05:54:35;;;;;;;3.10;1.67;;;9.00;99.90;;;;;;5063555;28;20021;-60
2021/12/18 05:57:17;;;;;;;4.03;2.17;;;9.00;99.90;;;;;;5076295;28;20436;-61
2021/12/18 05:59:44;;;;;;;5.63;2.88;;;9.10;99.90;;;;;;5077572;28;20032;-61
2021/12/18 06:02:09;;;;;;;4.15;2.45;;;9.00;99.90;;;;;;5084064;28;20041;-61
2021/12/18 06:04:35;;;;;;;3.78;2.00;;;9.00;99.90;;;;;;5057925;28;20025;-60
2021/12/18 06:07:04;;;;;;;4.75;2.47;;;9.00;99.90;;;;;;5076307;28;20115;-61
2021/12/18 06:09:33;;;;;;;4.15;2.17;;;9.00;99.90;;;;;;5078526;28;20024;-61
2021/12/18 06:11:58;;;;;;;4.65;2.67;;;9.00;99.90;;;;;;5075921;28;20535;-61
2021/12/18 06:14:47;;;;;;;4.18;2.35;;;9.00;99.90;;;;;;5075653;28;20021;-60
2021/12/18 06:17:13;;;;;;;4.50;1.92;;;9.00;99.90;;;;;;5078364;28;20089;-60
2021/12/18 06:19:38;;;;;;;3.83;2.00;;;8.90;99.90;;;;;;5078486;28;20376;-60
2021/12/18 06:22:04;;;;;;;4.97;2.83;;;9.00;99.90;;;;;;5075617;28;20414;-60
2021/12/18 06:24:29;;;;;;;4.22;2.40;;;9.00;99.90;;;;;;5072749;28;20388;-60
2021/12/18 06:26:56;;;;;;;4.25;2.10;;;8.90;99.90;;;;;;5077120;28;20384;-60
2021/12/18 06:29:22;;;;;;;4.28;2.50;;;8.90;99.90;;;;;;5072165;28;20082;-61
2021/12/18 06:31:48;;;;;;;5.80;2.38;;;9.00;99.90;;;;;;5066446;28;20025;-61
2021/12/18 06:34:14;;;;;;;6.15;2.53;;;9.00;99.90;;;;;;5073303;28;20119;-60
2021/12/18 06:36:39;;;;;;;5.13;2.63;;;9.00;99.90;;;;;;5073024;28;20137;-61
2021/12/18 06:39:05;;;;;;;5.45;3.08;;;9.00;99.90;;;;;;5073435;28;20108;-61
2021/12/18 06:41:31;;;;;;;5.32;2.75;;;8.90;99.90;;;;;;5073701;28;20477;-61
2021/12/18 06:43:57;;;;;;;7.22;3.25;;;8.90;99.90;;;;;;5085146;28;20031;-60
2021/12/18 06:46:22;;;;;;;6.25;3.28;;;8.90;99.90;;;;;;5057924;28;20468;-61
2021/12/18 06:48:48;;;;;;;7.80;4.03;;;8.90;99.90;;;;;;5067852;28;20066;-61
2021/12/18 06:51:16;;;;;;;6.22;3.55;;;8.90;99.90;;;;;;5065837;28;20051;-60
2021/12/18 06:53:42;;;;;;;7.43;4.00;;;8.90;99.90;;;;;;5089787;28;20028;-61
2021/12/18 06:56:07;;;;;;;6.57;3.55;;;8.80;99.90;;;;;;5093549;28;20028;-60
2021/12/18 06:58:33;;;;;;;6.65;3.03;;;8.80;99.90;;;;;;5091814;28;20020;-60
2021/12/18 07:00:59;;;;;;;7.78;3.80;;;8.80;99.90;;;;;;5088602;28;20480;-61
2021/12/18 07:03:25;;;;;;;6.22;3.08;;;8.70;99.90;;;;;;5074755;28;20132;-61
2021/12/18 07:05:50;;;;;;;5.35;2.95;;;8.80;99.90;;;;;;5093438;28;20024;-61
2021/12/18 07:08:16;;;;;;;7.20;3.17;;;8.80;99.90;;;;;;5075124;28;20476;-60
2021/12/18 07:10:42;;;;;;;6.05;3.22;;;8.80;99.90;;;;;;5093313;28;20380;-61
2021/12/18 07:13:07;;;;;;;3.95;2.45;;;8.70;99.90;;;;;;5092138;28;20475;-61
2021/12/18 07:15:38;;;;;;;5.05;2.60;;;8.70;99.90;;;;;;5089374;28;20031;-61
2021/12/18 07:18:04;;;;;;;4.20;2.22;;;8.70;99.90;;;;;;5091741;28;20044;-61
2021/12/18 07:20:31;;;;;;;5.18;2.88;;;8.70;99.90;;;;;;5091032;28;20115;-60
2021/12/18 07:22:56;;;;;;;6.88;3.35;;;8.70;99.90;;;;;;5082478;28;20016;-61
2021/12/18 07:25:22;;;;;;;5.38;2.72;;;8.70;99.90;;;;;;5072564;28;20421;-61
2021/12/18 07:27:47;;;;;;;4.82;2.75;;;8.60;99.90;;;;;;5072737;28;20024;-60
2021/12/18 07:30:15;;;;;;;6.63;3.08;;;8.60;99.90;;;;;;5072788;28;20435;-60
2021/12/18 07:32:41;;;;;;;4.68;2.10;;;8.70;99.90;;;;;;5072734;28;20487;-60
2021/12/18 07:35:23;;;;;;;4.72;2.72;;;8.60;99.90;;;;;;5054539;28;20451;-61
2021/12/18 07:37:49;;;;;;;5.15;2.50;;;8.70;99.90;;;;;;5087331;28;20042;-61
2021/12/18 07:40:15;;;;;;;5.03;2.28;;;8.70;99.90;;;;;;5081477;28;20032;-61
2021/12/18 07:42:41;;;;;;;5.45;2.00;;;8.70;99.90;;;;;;5088330;28;20533;-61
2021/12/18 07:45:07;;;;;;;4.75;2.00;;;8.70;99.90;;;;;;5092300;28;20032;-61
2021/12/18 07:47:33;;;;;;;4.85;2.20;;;8.70;99.90;;;;;;5088983;28;20025;-61
2021/12/18 07:50:01;;;;;;;4.45;1.95;;;8.70;99.90;;;;;;5091106;28;20028;-61
2021/12/18 07:52:34;;;;;;;4.57;2.15;;;8.70;99.90;;;;;;5085222;28;20612;-61
2021/12/18 07:54:59;;;;;;;4.32;1.98;;;8.80;99.90;;;;;;5070341;28;20537;-61
2021/12/18 07:57:40;;;;;;;;;;;;;;;;;;;;;
2021/12/18 08:00:10;;;;;;;4.45;2.28;;;8.80;99.90;;;;;;5090886;28;20324;-61
2021/12/18 08:02:35;;;;;;;4.38;2.17;;;8.70;99.90;;;;;;5091323;28;20016;-61
2021/12/18 08:05:02;;;;;;;4.05;2.35;;;8.70;99.90;;;;;;5084604;28;20498;-61
2021/12/18 08:07:28;;;;;;;4.20;2.33;;;8.70;99.90;;;;;;5091319;28;20016;-61
2021/12/18 08:09:53;;;;;;;4.00;2.17;;;8.60;99.90;;;;;;5091382;28;20032;-61
2021/12/18 08:12:19;;;;;;;3.50;1.70;;;8.60;99.90;;;;;;5092003;28;20468;-61
2021/12/18 08:14:44;;;;;;;4.47;2.42;;;8.50;99.90;;;;;;5092129;28;20438;-61
2021/12/18 08:17:10;;;;;;;3.28;2.08;;;8.50;99.90;;;;;;5092257;28;20053;-61
2021/12/18 08:19:35;;;;;;;3.65;2.00;;;8.50;99.90;;;;;;5091963;28;20048;-61
2021/12/18 08:22:08;;;;;;;3.53;1.80;;;8.50;99.90;;;;;;5092116;28;20032;-61
2021/12/18 08:24:34;;;;;;;2.58;1.45;;;8.40;99.90;;;;;;5073299;28;20049;-61
2021/12/18 08:26:59;;;;;;;3.67;1.73;;;8.50;99.90;;;;;;5087955;28;20111;-61
2021/12/18 08:29:25;;;;;;;3.38;1.35;;;8.50;99.90;;;;;;5067213;28;20095;-61
2021/12/18 08:31:59;;;;;;;2.90;1.45;;;8.40;99.90;;;;;;5091752;28;20047;-61
2021/12/18 08:34:25;;;;;;;3.08;1.35;;;8.40;99.90;;;;;;5092216;28;20072;-61
2021/12/18 08:36:50;;;;;;;2.42;0.95;;;8.40;99.90;;;;;;5091899;28;20024;-61
2021/12/18 08:39:47;;;;;;;3.60;2.00;;;8.50;99.90;;;;;;5089796;28;20039;-61
2021/12/18 08:42:13;;;;;;;3.50;1.52;;;8.50;99.90;;;;;;5072281;28;20043;-61
2021/12/18 08:44:39;;;;;;;2.42;1.20;;;8.40;99.90;;;;;;5087826;28;20032;-61
2021/12/18 08:47:17;;;;;;;3.22;1.50;;;8.40;99.90;;;;;;5091805;28;20134;-62
2021/12/18 08:50:13;;;;;;;2.58;1.42;;;8.40;99.90;;;;;;5073319;28;20035;-61
2021/12/18 08:52:38;;;;;;;3.13;1.70;;;8.40;99.90;;;;;;5091739;28;20024;-61
2021/12/18 08:55:05;;;;;;;3.72;1.40;;;8.40;99.90;;;;;;5091806;28;20039;-61
2021/12/18 08:57:30;;;;;;;1.60;0.73;;;8.40;99.90;;;;;;5095442;28;20032;-60
2021/12/18 09:00:17;;;;;;;2.67;1.40;;;8.40;99.90;;;;;;5095616;28;20024;-61
2021/12/18 09:02:48;;;;;;;3.00;1.33;;;8.40;99.90;;;;;;5095893;28;20047;-60
2021/12/18 09:05:19;;;;;;;2.90;1.45;;;8.40;99.90;;;;;;5095499;28;20028;-61
2021/12/18 09:07:56;;;;;;;3.53;1.52;;;8.40;99.90;;;;;;5077329;28;20107;-61
2021/12/18 09:10:23;;;;;;;2.33;1.02;;;8.40;99.90;;;;;;5095535;28;20115;-61
2021/12/18 09:13:04;;;;;;;2.65;1.33;;;8.40;99.90;;;;;;5077056;28;20522;-61
2021/12/18 09:15:41;;;;;;;2.20;1.35;;;8.50;99.90;;;;;;5077082;28;20472;-61
2021/12/18 09:18:06;;;;;;;2.25;1.15;;;8.50;99.90;;;;;;5076761;28;20066;-61
2021/12/18 09:24:12;;;;;;;1.90;1.02;;;8.60;99.90;;;;;;5031052;28;20123;-61
2021/12/18 09:26:56;;;;;;;2.35;1.13;;;8.60;99.90;;;;;;5035342;28;20421;-61
2021/12/18 09:30:29;;;;;;;2.20;1.02;;;8.60;99.90;;;;;;5087333;28;20024;-61
2021/12/18 09:36:07;;;;;;;2.08;0.80;;;8.60;99.90;;;;;;5067584;28;20047;-61
2021/12/18 09:38:32;;;;;;;1.38;0.70;;;8.60;99.90;;;;;;5093723;28;20391;-61
2021/12/18 09:41:06;;;;;;;1.65;0.73;;;8.70;99.90;;;;;;5090447;28;20030;-61
2021/12/18 09:43:32;;;;;;;1.35;0.75;;;8.70;99.90;;;;;;5092297;28;20059;-61
2021/12/18 09:46:26;;;;;;;1.35;0.65;;;8.70;99.90;;;;;;5090706;28;20016;-61
2021/12/18 09:52:01;;;;;;;1.20;0.50;;;8.70;99.90;;;;;;5090511;28;20071;-61
2021/12/18 09:54:27;;;;;;;1.45;0.70;;;8.70;99.90;;;;;;5093691;28;20056;-61
2021/12/18 09:57:18;;;;;;;1.33;0.70;;;8.70;99.90;;;;;;5088157;28;20024;-61
2021/12/18 09:59:43;;;;;;;1.50;0.88;;;8.70;99.90;;;;;;5079611;28;20130;-61
2021/12/18 10:02:09;;;;;;;2.63;1.13;;;8.70;99.90;;;;;;5088434;28;20420;-61
2021/12/18 10:04:36;;;;;;;2.83;0.90;;;8.60;99.90;;;;;;5090113;28;20020;-61
2021/12/18 10:07:17;;;;;;;2.05;0.75;;;8.70;99.90;;;;;;5084496;28;20044;-61
2021/12/18 10:09:44;;;;;;;1.60;0.77;;;8.70;99.90;;;;;;5087805;28;20032;-61
2021/12/18 10:12:17;;;;;;;1.80;0.88;;;8.70;99.90;;;;;;5090487;28;20070;-60
2021/12/18 10:15:02;;;;;;;1.95;0.80;;;8.70;99.90;;;;;;5086196;28;20472;-61
2021/12/18 10:17:34;;;;;;;1.60;0.80;;;8.80;99.90;;;;;;5085931;28;20039;-61
2021/12/18 10:20:29;;;;;;;1.20;0.60;;;8.80;99.90;;;;;;5086966;28;20119;-61
2021/12/18 10:22:58;;;;;;;2.00;1.00;;;8.80;99.90;;;;;;5086842;28;20386;-60
2021/12/18 10:28:20;;;;;;;1.75;0.93;;;8.80;99.90;;;;;;5078359;28;20040;-61
2021/12/18 10:30:59;;;;;;;1.50;0.90;;;8.70;99.90;;;;;;5065177;28;20024;-61
2021/12/18 10:33:28;;;;;;;1.20;0.63;;;8.70;99.90;;;;;;5087903;28;20062;-61
2021/12/18 10:36:07;;;;;;;1.10;0.65;;;8.70;99.90;;;;;;5085389;28;20024;-61
2021/12/18 10:38:49;;;;;;;1.00;0.60;;;8.80;99.90;;;;;;5085685;28;20426;-60
2021/12/18 10:41:35;;;;;;;1.38;0.73;;;8.80;99.90;;;;;;5079728;28;20492;-61
2021/12/18 10:44:08;;;;;;;1.40;0.80;;;8.80;99.90;;;;;;5085719;28;20099;-61
2021/12/18 10:46:45;;;;;;;1.40;0.63;;;8.90;99.90;;;;;;5089064;28;20019;-61
2021/12/18 10:49:15;;;;;;;1.27;0.60;;;8.90;99.90;;;;;;5089558;28;20017;-61
2021/12/18 10:51:42;;;;;;;1.48;0.80;;;8.90;99.90;;;;;;5087546;28;20028;-61
2021/12/18 10:54:14;;;;;;;0.95;0.50;;;8.80;99.90;;;;;;5087547;28;20024;-60
2021/12/18 10:56:46;;;;;;;1.13;0.60;;;8.80;99.90;;;;;;5088677;28;20020;-61
2021/12/18 10:59:31;;;;;;;0.98;0.40;;;8.80;99.90;;;;;;5092216;28;20031;-60
2021/12/18 11:02:09;;;;;;;0.70;0.40;;;8.80;99.90;;;;;;5089072;28;20460;-60
2021/12/18 11:04:39;;;;;;;1.00;0.50;;;8.80;99.90;;;;;;5091724;28;20088;-60
2021/12/18 11:07:18;;;;;;;;;;;8.80;99.90;;;;;;5089685;28;20023;-60
2021/12/18 11:09:59;;;;;;;1.20;0.60;;;8.70;99.90;;;;;;5071120;28;19908;-60
2021/12/18 11:15:09;;;;;;;1.63;0.95;;;8.70;99.90;;;;;;5091739;28;20455;-60
2021/12/18 11:17:35;;;;;;;1.70;1.27;;;8.60;99.90;;;;;;5088765;28;20040;-60
2021/12/18 11:20:01;;;;;;;1.67;1.20;;;8.70;99.90;;;;;;5056086;28;20032;-60
2021/12/18 11:22:27;;;;;;;3.17;1.63;;;8.80;99.90;;;;;;5090229;28;20115;-61
2021/12/18 11:25:05;;;;;;;1.88;1.17;;;8.70;99.90;;;;;;5074752;28;20107;-61
2021/12/18 11:27:34;;;;;;;1.52;1.00;;;8.80;99.90;;;;;;5092464;28;20024;-61
2021/12/18 11:30:11;;;;;;;1.63;1.00;;;8.80;99.90;;;;;;5074580;28;20609;-60
2021/12/18 11:32:40;;;;;;;2.40;1.60;;;8.70;99.90;;;;;;5074610;28;20046;-60
2021/12/18 11:35:12;;;;;;;1.63;1.05;;;8.60;99.90;;;;;;5092770;28;20484;-60
2021/12/18 11:37:46;;;;;;;1.23;0.60;;;8.70;99.90;;;;;;5092476;28;20032;-60
2021/12/18 11:40:15;;;;;;;1.60;0.93;;;8.70;99.90;;;;;;5092265;28;20035;-61
2021/12/18 11:42:42;;;;;;;1.35;0.88;;;8.60;99.90;;;;;;5092404;28;20515;-61
2021/12/18 11:45:09;;;;;;;1.10;0.70;;;8.60;99.90;;;;;;5090119;28;20522;-61
2021/12/18 11:47:43;;;;;;;1.08;0.63;;;8.60;99.90;;;;;;5082086;28;20024;-60
2021/12/18 11:50:34;;;;;;;0.57;0.45;;;8.70;99.90;;;;;;5084539;28;20032;-61
2021/12/18 11:53:18;;;;;;;0.50;0.38;;;8.80;99.90;;;;;;5084461;28;20041;-60
2021/12/18 11:55:50;;;;;;;0.60;0.30;;;8.80;99.90;;;;;;5087040;28;20020;-61
2021/12/18 11:58:21;;;;;;;0.63;0.22;;;8.90;99.90;;;;;;5090452;28;20024;-61
2021/12/18 12:01:00;;;;;;;0.57;0.30;;;9.00;99.90;;;;;;5085088;28;20021;-60
2021/12/18 12:03:43;;;;;;;0.40;0.30;;;9.10;99.90;;;;;;5092035;28;20012;-61
2021/12/18 12:06:34;;;;;;;0.65;0.35;;;9.00;99.90;;;;;;5083967;28;20073;-61
2021/12/18 12:09:29;;;;;;;0.85;0.43;;;9.10;99.90;;;;;;5090496;28;20020;-61
2021/12/18 12:12:02;;;;;;;0.55;0.40;;;9.10;99.90;;;;;;5088418;28;20016;-61
2021/12/18 12:14:29;;;;;;;1.40;0.50;;;9.10;99.90;;;;;;5090768;28;20679;-61
2021/12/18 12:17:02;;;;;;;0.75;0.50;;;9.00;99.90;;;;;;5091795;28;20025;-61
2021/12/18 12:19:33;;;;;;;0.82;0.50;;;9.00;99.90;;;;;;5091582;28;20119;-61
2021/12/18 12:21:59;;;;;;;1.13;0.50;;;9.00;99.90;;;;;;5073313;28;20113;-61
2021/12/18 12:24:27;;;;;;;0.60;0.40;;;9.00;99.90;;;;;;5091784;28;20067;-61
2021/12/18 12:26:54;;;;;;;0.80;0.50;;;9.10;99.90;;;;;;5073246;28;20384;-61
2021/12/18 12:29:20;;;;;;;0.98;0.60;;;9.00;99.90;;;;;;5091534;28;20480;-61
2021/12/18 12:32:00;;;;;;;0.80;0.40;;;9.00;99.90;;;;;;5091135;28;20024;-61
2021/12/18 12:34:34;;;;;;;0.80;0.47;;;9.00;99.90;;;;;;5091743;28;20032;-61
2021/12/18 12:37:31;;;;;;;2.40;0.50;;;9.00;99.90;;;;;;5091167;28;20036;-61
2021/12/18 12:40:02;;;;;;;1.33;0.80;;;9.00;99.90;;;;;;5080624;28;20039;-61
2021/12/18 12:42:29;;;;;;;1.73;1.42;;;8.90;99.90;;;;;;5090627;28;20110;-61
2021/12/18 12:45:09;;;;;;;1.63;1.00;;;8.80;99.90;;;;;;5071056;28;20020;-61
2021/12/18 12:47:35;;;;;;;1.42;0.90;;;8.80;99.90;;;;;;5071128;28;20021;-60
2021/12/18 12:50:25;;;;;;;1.40;0.85;;;8.70;99.90;;;;;;5071498;28;20028;-60
2021/12/18 12:53:02;;;;;;;1.13;0.60;;;8.80;99.90;;;;;;5071449;28;20024;-61
2021/12/18 12:55:30;;;;;;;1.20;0.50;;;8.80;99.90;;;;;;5069784;28;20040;-61
2021/12/18 12:58:01;;;;;;;1.02;0.60;;;8.80;99.90;;;;;;5071108;28;20071;-60
2021/12/18 13:00:27;;;;;;;1.17;0.60;;;8.80;99.90;;;;;;5053146;28;20108;-61
2021/12/18 13:03:01;;;;;;;0.95;0.55;;;8.90;99.90;;;;;;5071235;28;20170;-61
2021/12/18 13:05:28;;;;;;;1.13;0.70;;;8.90;99.90;;;;;;5069785;28;20456;-61
2021/12/18 13:08:00;;;;;;;0.80;0.52;;;8.80;99.90;;;;;;5084340;28;20028;-61
2021/12/18 13:10:37;;;;;;;1.27;0.70;;;8.70;99.90;;;;;;5088591;28;20024;-61
2021/12/18 13:13:06;;;;;;;0.73;0.43;;;8.80;99.90;;;;;;5089778;28;20028;-61
2021/12/18 13:16:03;;;;;;;0.70;0.50;;;8.80;99.90;;;;;;5086193;28;20036;-61
2021/12/18 13:18:35;;;;;;;0.82;0.50;;;8.80;99.90;;;;;;5077827;28;20646;-60
2021/12/18 13:21:11;;;;;;;1.02;0.60;;;8.80;99.90;;;;;;5083799;28;20093;-61
2021/12/18 13:24:06;;;;;;;1.05;0.60;;;8.70;99.90;;;;;;5084220;28;20077;-61
2021/12/18 13:26:36;;;;;;;1.20;0.68;;;8.70;99.90;;;;;;5077003;28;20020;-61
2021/12/18 13:29:06;;;;;;;;;;;8.70;99.90;;;;;;5086008;28;20147;-61
2021/12/18 13:31:34;;;;;;;0.90;0.52;;;8.60;99.90;;;;;;5096185;28;20413;-61
2021/12/18 13:34:03;;;;;;;0.70;0.50;;;8.60;99.90;;;;;;5092765;28;20032;-61
2021/12/18 13:37:03;;;;;;;1.85;0.68;;;8.60;99.90;;;;;;5111359;28;20020;-60
2021/12/18 13:39:35;;;;;;;1.10;0.60;;;8.50;99.90;;;;;;5111153;28;20032;-61
2021/12/18 13:42:19;;;;;;;1.02;0.60;;;8.50;99.90;;;;;;5112684;28;20058;-60
2021/12/18 13:44:57;;;;;;;0.90;0.57;;;8.50;99.90;;;;;;5094722;28;20330;-61
2021/12/18 13:47:29;;;;;;;1.30;0.60;;;8.50;99.90;;;;;;5094373;28;20020;-60
2021/12/18 13:50:04;;;;;;;0.80;0.40;;;8.60;99.90;;;;;;5091778;28;20109;-60
2021/12/18 13:52:38;;;;;;;0.80;0.50;;;8.60;99.90;;;;;;5111053;28;20098;-61
2021/12/18 13:55:23;;;;;;;0.80;0.45;;;8.60;99.90;;;;;;5090438;28;20088;-61
2021/12/18 13:58:02;;;;;;;0.65;0.43;;;8.70;99.90;;;;;;5088118;28;20084;-61
2021/12/18 14:00:28;;;;;;;0.73;0.45;;;8.70;99.90;;;;;;5074358;28;20082;-60
2021/12/18 14:02:54;;;;;;;0.60;0.50;;;8.60;99.90;;;;;;5093715;28;20024;-61
2021/12/18 14:05:19;;;;;;;1.05;0.65;;;8.60;99.90;;;;;;5074659;28;20043;-60
2021/12/18 14:07:46;;;;;;;1.00;0.70;;;8.60;99.90;;;;;;5093015;28;20031;-61
2021/12/18 14:10:12;;;;;;;1.88;1.25;;;8.60;99.90;;;;;;5060761;28;20033;-60
2021/12/18 14:12:37;;;;;;;1.13;1.00;;;8.60;99.90;;;;;;5087800;28;20035;-62
2021/12/18 14:15:03;;;;;;;1.23;0.60;;;8.60;99.90;;;;;;5091553;28;20028;-60
2021/12/18 14:17:32;;;;;;;1.30;0.80;;;8.60;99.90;;;;;;5092601;28;20028;-60